Time;durP1;ratioP1;P1;durP2;ratioP2;P2;SDS_P1;SDS_P2;PMS_P1;PMS_P2;Temp;Humidity;BMP_temperature;BMP_pressure;BME280_temperature;BME280_humidity;BME280_pressure;Samples;Min_cycle;Max_cycle;Signal;HPM_P1;HPM_P2
2024/01/05 00:02:59;;;;;;;7.93;4.00;;;;;;;10.96;43.69;98742.53;10231711;28;20235;-34
2024/01/05 00:08:01;;;;;;;7.93;4.33;;;;;;;12.83;41.31;98620.31;10222062;28;20234;-34
2024/01/05 00:13:03;;;;;;;9.93;5.30;;;;;;;11.22;43.45;98728.19;10235655;28;20236;-34
2024/01/05 00:18:06;;;;;;;9.27;4.43;;;;;;;12.36;42.37;98569.91;10229693;28;20234;-38
2024/01/05 00:23:08;;;;;;;9.57;3.97;;;;;;;12.18;42.58;98576.09;10232543;28;20594;-34
2024/01/05 00:28:09;;;;;;;9.73;4.03;;;;;;;13.23;40.76;98617.06;10230023;28;20530;-34
2024/01/05 00:33:11;;;;;;;10.93;4.23;;;;;;;12.68;40.75;98669.84;10237112;29;20214;-34
2024/01/05 00:38:13;;;;;;;8.47;4.20;;;;;;;12.77;41.32;98613.16;10223132;28;20738;-33
2024/01/05 00:43:15;;;;;;;7.47;3.90;;;;;;;11.68;43.17;98625.28;10234659;28;20864;-34
2024/01/05 00:48:16;;;;;;;8.03;4.57;;;;;;;12.13;43.26;98477.56;10230530;28;20257;-35
2024/01/05 00:53:18;;;;;;;5.00;3.90;;;;;;;12.87;41.32;98533.72;10229929;28;20339;-34
2024/01/05 00:58:20;;;;;;;8.80;4.00;;;;;;;13.31;40.18;98610.56;10231100;28;20302;-34
2024/01/05 01:03:22;;;;;;;8.57;3.93;;;;;;;12.64;40.82;98692.81;10233305;28;20274;-34
2024/01/05 01:08:24;;;;;;;7.30;3.70;;;;;;;12.48;41.62;98608.38;10233443;28;20322;-34
2024/01/05 01:13:25;;;;;;;7.27;3.60;;;;;;;12.09;42.22;98621.16;10235722;29;20208;-34
2024/01/05 01:18:27;;;;;;;7.13;3.50;;;;;;;12.87;40.78;98634.91;10230073;28;20345;-33
2024/01/05 01:23:29;;;;;;;5.53;3.60;;;;;;;13.01;40.50;98614.06;10250781;28;20231;-35
2024/01/05 01:28:31;;;;;;;8.93;3.77;;;;;;;13.77;39.64;98590.16;10227408;28;20244;-34
2024/01/05 01:33:32;;;;;;;7.37;3.90;;;;;;;13.70;39.54;98603.72;10236208;28;20654;-35
2024/01/05 01:38:34;;;;;;;8.00;3.90;;;;;;;12.66;41.02;98644.28;10226416;28;20232;-35
2024/01/05 01:43:36;;;;;;;8.07;3.93;;;;;;;12.92;40.40;98609.03;10236285;28;20476;-34
2024/01/05 01:48:40;;;;;;;8.37;3.50;;;;;;;11.43;43.32;98536.88;10230017;28;20297;-34
2024/01/05 01:53:43;;;;;;;6.37;4.23;;;;;;;12.33;41.70;98514.84;10231473;28;20246;-34
2024/01/05 01:58:46;;;;;;;15.00;4.80;;;;;;;13.87;39.54;98492.72;10229122;28;20241;-35
2024/01/05 02:03:48;;;;;;;7.90;5.00;;;;;;;13.40;39.77;98591.19;10234858;28;20327;-35
2024/01/05 02:08:51;;;;;;;8.03;4.10;;;;;;;13.31;39.89;98599.81;10229896;28;20326;-34
2024/01/05 02:13:52;;;;;;;7.27;3.97;;;;;;;14.19;38.69;98539.69;10235140;28;20287;-35
2024/01/05 02:18:55;;;;;;;8.63;3.60;;;;;;;11.50;41.95;98687.63;10232706;28;20254;-35
2024/01/05 02:23:57;;;;;;;6.53;3.93;;;;;;;13.50;39.76;98585.22;10236872;28;20234;-35
2024/01/05 02:29:02;;;;;;;6.83;3.70;;;;;;;12.48;41.34;98572.66;10229706;28;20684;-34
2024/01/05 02:34:04;;;;;;;6.90;3.70;;;;;;;11.29;43.26;98492.50;10251011;28;20239;-34
2024/01/05 02:39:06;;;;;;;6.60;3.70;;;;;;;11.33;43.23;98489.16;10234544;28;20318;-35
2024/01/05 02:44:07;;;;;;;8.77;4.43;;;;;;;11.11;43.68;98423.69;10238132;28;20232;-34
2024/01/05 02:49:09;;;;;;;5.27;3.70;;;;;;;10.77;44.02;98484.72;10242958;28;20248;-34
2024/01/05 02:54:11;;;;;;;7.70;4.57;;;;;;;11.85;42.47;98364.75;10228662;28;20249;-34
2024/01/05 02:59:13;;;;;;;7.90;3.97;;;;;;;10.60;43.53;98535.22;10241088;28;20233;-34
2024/01/05 03:04:15;;;;;;;6.13;3.77;;;;;;;10.26;44.56;98522.00;10225253;28;20830;-34
2024/01/05 03:09:17;;;;;;;11.27;4.23;;;;;;;12.37;41.83;98389.94;10230296;28;20278;-34
2024/01/05 03:14:19;;;;;;;9.40;4.17;;;;;;;12.71;41.48;98365.28;10230197;28;20246;-34
2024/01/05 03:19:20;;;;;;;8.40;3.90;;;;;;;12.49;41.48;98360.50;10228300;28;20249;-34
2024/01/05 03:24:22;;;;;;;5.50;3.70;;;;;;;13.76;39.89;98394.94;10230923;28;20231;-34
2024/01/05 03:29:24;;;;;;;5.67;3.43;;;;;;;13.45;40.27;98415.81;10229597;28;20246;-34
2024/01/05 03:34:28;;;;;;;10.13;4.70;;;;;;;13.25;40.52;98411.59;10229262;28;20263;-34
2024/01/05 03:39:30;;;;;;;6.53;3.80;;;;;;;13.20;40.35;98441.03;10230247;28;20662;-34
2024/01/05 03:44:31;;;;;;;10.10;3.57;;;;;;;13.26;40.06;98488.47;10227519;28;20259;-35
2024/01/05 03:49:33;;;;;;;7.27;4.00;;;;;;;12.62;40.84;98492.81;10233732;28;20240;-34
2024/01/05 03:54:35;;;;;;;6.97;4.37;;;;;;;13.32;40.11;98408.03;10236747;28;20262;-34
2024/01/05 03:59:37;;;;;;;8.73;4.40;;;;;;;11.38;42.89;98457.16;10238288;28;20314;-34
2024/01/05 04:04:39;;;;;;;7.97;4.03;;;;;;;12.96;40.93;98356.16;10238174;28;20244;-34
2024/01/05 04:09:41;;;;;;;8.27;4.37;;;;;;;13.48;40.30;98330.19;10252413;28;20238;-34
2024/01/05 04:14:45;;;;;;;7.07;3.60;;;;;;;12.04;41.43;98486.97;10240942;28;20232;-34
2024/01/05 04:19:47;;;;;;;6.40;3.80;;;;;;;12.87;40.62;98415.59;10236973;28;20241;-45
2024/01/05 04:24:49;;;;;;;5.27;3.30;;;;;;;13.05;41.01;98336.78;10239100;28;20301;-44
2024/01/05 04:29:50;;;;;;;10.23;4.70;;;;;;;12.69;41.06;98413.84;10237955;28;20246;-43
2024/01/05 04:34:52;;;;;;;7.37;3.80;;;;;;;10.70;42.80;98533.69;10241456;28;20234;-43
2024/01/05 04:39:54;;;;;;;9.07;4.17;;;;;;;9.20;46.21;98393.13;10237006;28;20234;-43
2024/01/05 04:44:56;;;;;;;7.27;3.93;;;;;;;8.68;47.52;98357.47;10240926;28;20243;-42
2024/01/05 04:49:57;;;;;;;6.53;3.73;;;;;;;9.62;46.61;98216.50;10228293;28;20247;-43
2024/01/05 04:54:59;;;;;;;6.50;3.93;;;;;;;10.42;44.24;98346.06;10235247;28;20240;-43
2024/01/05 05:00:01;;;;;;;5.13;3.77;;;;;;;12.00;42.10;98217.69;10251521;28;20741;-43
2024/01/05 05:05:03;;;;;;;3.73;3.30;;;;;;;11.52;43.04;98207.91;10239182;28;20239;-43
2024/01/05 05:10:05;;;;;;;4.87;3.57;;;;;;;10.79;44.14;98196.34;10230644;28;20293;-43
2024/01/05 05:15:08;;;;;;;6.00;3.47;;;;;;;11.36;42.23;98352.13;10238757;28;20243;-42
2024/01/05 05:20:10;;;;;;;5.00;2.97;;;;;;;10.18;44.56;98200.66;10232456;28;20747;-43
2024/01/05 05:25:12;;;;;;;6.13;3.23;;;;;;;10.55;43.95;98193.47;10234402;28;20431;-43
2024/01/05 05:30:13;;;;;;;3.40;3.10;;;;;;;10.44;43.69;98299.31;10230895;28;20236;-42
2024/01/05 05:35:15;;;;;;;4.57;2.93;;;;;;;11.23;42.68;98282.66;10237776;28;20818;-43
2024/01/05 05:40:17;;;;;;;4.47;2.97;;;;;;;11.32;42.10;98300.06;10230382;28;20246;-43
2024/01/05 05:45:19;;;;;;;7.67;3.93;;;;;;;10.54;43.57;98308.72;10235585;28;20323;-43
2024/01/05 05:50:21;;;;;;;6.37;3.90;;;;;;;11.33;42.65;98347.22;10229488;28;20238;-43
2024/01/05 05:55:22;;;;;;;3.83;2.90;;;;;;;11.47;42.83;98283.59;10233016;28;20688;-43
2024/01/05 06:00:25;;;;;;;3.73;2.93;;;;;;;11.50;42.42;98341.25;10232411;28;20249;-43
2024/01/05 06:05:26;;;;;;;4.60;3.40;;;;;;;11.10;42.75;98414.81;10236490;28;20251;-43
2024/01/05 06:10:28;;;;;;;4.53;2.93;;;;;;;11.58;42.82;98263.25;10231491;28;20246;-43
2024/01/05 06:15:30;;;;;;;3.13;2.87;;;;;;;12.31;41.21;98278.22;10236118;28;20340;-42
2024/01/05 06:20:32;;;;;;;4.23;2.80;;;;;;;11.43;42.07;98400.25;10231989;28;20258;-42
2024/01/05 06:25:33;;;;;;;3.63;2.90;;;;;;;10.85;44.44;98307.81;10232570;29;20292;-43
2024/01/05 06:30:35;;;;;;;4.70;3.00;;;;;;;10.46;44.53;98326.69;10231203;28;20257;-43
2024/01/05 06:35:37;;;;;;;4.67;3.40;;;;;;;12.10;42.31;98292.19;10235244;28;20227;-42
2024/01/05 06:40:38;;;;;;;5.70;3.30;;;;;;;11.94;42.02;98371.41;10231130;28;20239;-43
2024/01/05 06:45:40;;;;;;;3.90;3.50;;;;;;;11.79;42.96;98275.34;10234017;28;20267;-42
2024/01/05 06:50:42;;;;;;;4.80;3.53;;;;;;;11.18;44.23;98263.78;10230945;28;20641;-42
2024/01/05 06:55:43;;;;;;;4.07;2.70;;;;;;;10.60;44.28;98378.19;10232730;28;20240;-43
2024/01/05 07:00:45;;;;;;;6.70;3.50;;;;;;;11.68;43.00;98278.81;10204233;28;20726;-43
2024/01/05 07:05:48;;;;;;;4.43;3.30;;;;;;;10.55;43.98;98489.56;10235516;28;20244;-43
2024/01/05 07:10:50;;;;;;;3.77;3.23;;;;;;;12.63;41.63;98338.81;10237790;28;20270;-43
2024/01/05 07:15:51;;;;;;;4.27;3.30;;;;;;;11.79;42.90;98347.69;10231780;28;20636;-43
2024/01/05 07:20:53;;;;;;;6.80;3.20;;;;;;;13.14;40.66;98353.34;10230094;28;20250;-43
2024/01/05 07:26:00;;;;;;;3.73;3.20;;;;;;;12.11;42.25;98296.50;10240816;28;20807;-43
2024/01/05 07:31:05;;;;;;;5.00;3.43;;;;;;;11.93;42.25;98380.47;10243901;28;20234;-43
2024/01/05 07:36:07;;;;;;;3.70;3.40;;;;;;;12.64;41.47;98394.94;10242663;28;20608;-43
2024/01/05 07:41:18;;;;;;;5.10;2.93;;;;;;;12.93;40.77;98358.28;10242547;28;20679;-43
2024/01/05 07:46:19;;;;;;;6.00;3.73;;;;;;;10.41;44.33;98435.31;10238795;28;20501;-41
2024/01/05 07:51:22;;;;;;;6.37;3.87;;;;;;;11.80;43.04;98344.78;10237248;28;20240;-41
2024/01/05 07:56:24;;;;;;;6.33;3.93;;;;;;;11.83;42.76;98356.94;10235963;28;20320;-42
2024/01/05 08:01:25;;;;;;;4.13;3.13;;;;;;;10.48;44.89;98449.50;10255457;28;20326;-43
2024/01/05 08:06:27;;;;;;;3.70;3.20;;;;;;;9.98;46.08;98395.91;10237180;28;20467;-43
2024/01/05 08:11:29;;;;;;;4.00;2.70;;;;;;;9.09;47.97;98388.41;10242098;28;20247;-42
2024/01/05 08:16:31;;;;;;;7.83;3.23;;;;;;;9.85;46.79;98330.00;10239474;29;20221;-43
2024/01/05 08:21:32;;;;;;;8.60;3.40;;;;;;;8.72;49.50;98257.34;10234903;28;20283;-41
2024/01/05 08:26:34;;;;;;;4.70;3.13;;;;;;;8.39;49.61;98306.22;10241390;28;20237;-43
2024/01/05 08:31:36;;;;;;;4.77;3.40;;;;;;;9.91;48.32;98112.72;10236095;28;20295;-43
2024/01/05 08:36:38;;;;;;;3.30;3.00;;;;;;;10.12;47.68;98139.03;10234764;28;20266;-43
2024/01/05 08:41:42;;;;;;;4.00;3.60;;;;;;;8.74;49.95;98188.63;10241601;28;20249;-43
2024/01/05 08:46:44;;;;;;;4.50;3.50;;;;;;;10.48;47.30;98144.63;10231139;28;20239;-42
2024/01/05 08:51:45;;;;;;;5.17;3.47;;;;;;;8.01;50.88;98301.50;10252182;28;20355;-43
2024/01/05 08:56:47;;;;;;;3.70;3.23;;;;;;;9.28;47.58;98399.25;10238822;28;20264;-42
2024/01/05 09:01:49;;;;;;;6.67;3.60;;;;;;;9.74;48.32;98163.19;10241616;28;20310;-42
2024/01/05 09:06:51;;;;;;;4.40;3.10;;;;;;;9.05;48.41;98379.19;10235018;28;20240;-41
2024/01/05 09:11:53;;;;;;;4.87;3.40;;;;;;;8.76;48.78;98391.94;10239542;28;20247;-42
2024/01/05 09:16:55;;;;;;;6.47;3.90;;;;;;;9.61;47.93;98312.88;10237132;28;20734;-43
2024/01/05 09:21:59;;;;;;;5.73;3.97;;;;;;;10.34;47.63;98184.03;10237034;28;20689;-42
2024/01/05 09:27:02;;;;;;;4.93;3.47;;;;;;;8.84;49.24;98394.38;10233676;28;20283;-42
2024/01/05 09:32:04;;;;;;;6.63;3.13;;;;;;;10.91;46.72;98301.56;10232125;28;20238;-43
2024/01/05 09:37:06;;;;;;;4.53;3.10;;;;;;;9.87;48.81;98338.63;10238484;28;20299;-43
2024/01/05 09:42:08;;;;;;;5.47;3.37;;;;;;;11.40;46.06;98344.47;10238002;28;20306;-43
2024/01/05 09:47:11;;;;;;;6.37;3.37;;;;;;;11.85;45.61;98345.97;10234741;28;20250;-43
2024/01/05 09:52:12;;;;;;;3.83;2.83;;;;;;;11.11;46.14;98340.69;10233745;28;20277;-43
2024/01/05 09:57:17;;;;;;;5.13;3.10;;;;;;;11.30;45.81;98467.34;10239593;28;20234;-43
2024/01/05 10:02:50;;;;;;;4.43;3.73;;;;;;;12.43;45.24;98334.56;10246343;28;20266;-43
2024/01/05 10:07:52;;;;;;;3.27;2.93;;;;;;;12.34;44.22;98507.63;10229530;28;20259;-45
2024/01/05 10:13:04;;;;;;;6.43;3.27;;;;;;;12.81;44.41;98365.53;10233116;28;20318;-42
2024/01/05 10:18:18;;;;;;;3.50;2.90;;;;;;;12.80;44.08;98471.25;10233079;28;20299;-43
2024/01/05 10:23:25;;;;;;;3.20;2.90;;;;;;;10.15;48.36;98437.13;10353528;23;20232;-69
2024/01/05 10:28:37;;;;;;;4.13;3.40;;;;;;;10.86;47.60;98352.25;10393373;28;20259;-71
2024/01/05 10:33:53;;;;;;;4.47;3.13;;;;;;;12.05;44.99;98407.38;10395631;28;20229;-71
2024/01/05 10:38:56;;;;;;;4.00;3.23;;;;;;;11.24;46.14;98405.63;10393098;28;20236;-70
2024/01/05 10:43:58;;;;;;;6.40;3.67;;;;;;;12.29;44.90;98379.56;10393077;28;20232;-71
2024/01/05 10:49:00;;;;;;;4.70;2.97;;;;;;;12.54;44.90;98400.84;10390354;28;20240;-71
2024/01/05 10:54:02;;;;;;;2.50;2.30;;;;;;;11.88;45.13;98460.75;10393673;28;20641;-71
2024/01/05 10:59:04;;;;;;;4.63;2.83;;;;;;;13.63;42.34;98453.31;10393531;28;20285;-71
2024/01/05 11:06:12;;;;;;;4.70;3.03;;;;;;;9.62;49.77;98314.47;10503791;27;21364;-70
2024/01/05 11:11:33;;;;;;;5.47;3.30;;;;;;;9.09;49.77;98433.78;10428348;28;20685;-71
2024/01/05 11:16:44;;;;;;;5.03;3.20;;;;;;;10.76;48.25;98295.75;10419532;28;20667;-71
2024/01/05 11:21:54;;;;;;;3.70;2.97;;;;;;;10.37;48.07;98337.88;10429264;28;20446;-71
2024/01/05 11:26:56;;;;;;;3.07;2.70;;;;;;;11.04;47.26;98301.41;10422493;28;20587;-71
2024/01/05 11:31:57;;;;;;;6.63;2.60;;;;;;;10.54;47.72;98346.97;10425170;28;20232;-71
2024/01/05 11:37:00;;;;;;;6.10;3.27;;;;;;;10.29;48.80;98278.28;10421828;28;20270;-72
2024/01/05 11:42:03;;;;;;;4.83;2.70;;;;;;;10.75;47.70;98335.09;10428726;28;20797;-72
2024/01/05 11:47:04;;;;;;;3.27;2.87;;;;;;;10.55;47.08;98447.59;10419259;28;20323;-71
2024/01/05 11:52:07;;;;;;;4.30;2.90;;;;;;;10.77;47.66;98342.91;10426469;28;20270;-72
2024/01/05 11:57:09;;;;;;;5.07;3.20;;;;;;;10.54;47.42;98395.13;10419590;28;20239;-72
2024/01/05 12:02:17;;;;;;;3.40;3.07;;;;;;;11.33;46.57;98352.56;10422312;28;20248;-72
2024/01/05 12:07:20;;;;;;;5.47;2.90;;;;;;;11.83;46.05;98345.38;10418294;28;20236;-72
2024/01/05 12:12:23;;;;;;;3.83;2.60;;;;;;;11.26;46.61;98351.84;10422436;28;20312;-72
2024/01/05 12:17:24;;;;;;;3.07;2.53;;;;;;;9.91;47.86;98500.97;10399691;28;20233;-72
2024/01/05 12:22:26;;;;;;;3.63;2.80;;;;;;;10.38;47.34;98423.22;10399784;28;20244;-71
2024/01/05 12:27:38;;;;;;;5.47;3.60;;;;;;;12.18;44.98;98330.22;10394025;28;20256;-72
2024/01/05 12:32:41;;;;;;;6.07;2.70;;;;;;;11.40;45.69;98396.16;10396576;28;20236;-72
2024/01/05 12:37:51;;;;;;;4.80;2.73;;;;;;;10.84;47.06;98355.16;10394999;28;20248;-72
2024/01/05 12:42:53;;;;;;;3.60;2.90;;;;;;;12.41;44.92;98266.09;10401192;28;20326;-72
2024/01/05 12:47:55;;;;;;;3.07;2.63;;;;;;;11.83;46.17;98319.41;10393717;28;20794;-72
2024/01/05 12:52:56;;;;;;;3.40;2.90;;;;;;;11.79;44.96;98436.13;10399017;28;20640;-72
2024/01/05 12:58:05;;;;;;;2.83;2.40;;;;;;;12.70;44.12;98415.47;10389322;28;20232;-72
2024/01/05 13:03:16;;;;;;;5.30;2.80;;;;;;;12.83;43.40;98451.19;10398420;28;20376;-72
2024/01/05 13:08:17;;;;;;;6.80;2.97;;;;;;;13.07;43.60;98422.47;10395905;28;20241;-72
2024/01/05 13:13:19;;;;;;;5.07;2.97;;;;;;;12.70;43.96;98425.38;10396120;28;20650;-72
2024/01/05 13:18:21;;;;;;;4.90;2.60;;;;;;;11.34;45.64;98511.38;10392004;28;20676;-72
2024/01/05 13:23:26;;;;;;;5.57;2.80;;;;;;;12.78;43.58;98485.97;10398042;28;20302;-72
2024/01/05 13:28:28;;;;;;;3.67;2.50;;;;;;;11.63;44.80;98491.97;10389060;28;20279;-72
2024/01/05 13:33:31;;;;;;;7.23;3.17;;;;;;;12.35;44.18;98495.81;10388952;28;20323;-72
2024/01/05 13:38:33;;;;;;;5.30;2.83;;;;;;;11.38;45.29;98403.59;10394800;28;20302;-73
2024/01/05 13:43:35;;;;;;;6.20;2.87;;;;;;;12.53;43.60;98409.94;10401486;28;20232;-72
2024/01/05 13:48:37;;;;;;;5.73;2.63;;;;;;;11.69;44.71;98459.97;10476598;28;20235;-72
2024/01/05 13:53:39;;;;;;;3.63;2.43;;;;;;;11.69;44.68;98435.84;10474991;28;20235;-72
2024/01/05 13:58:40;;;;;;;6.23;2.80;;;;;;;13.17;43.03;98429.97;10468967;28;20710;-72
2024/01/05 14:03:42;;;;;;;6.60;3.70;;;;;;;12.78;43.35;98410.81;10473376;28;20231;-72
2024/01/05 14:08:44;;;;;;;5.20;3.10;;;;;;;11.40;45.41;98457.75;10473344;28;20245;-71
2024/01/05 14:13:45;;;;;;;4.13;2.80;;;;;;;11.63;44.87;98491.16;10469316;28;20323;-72
2024/01/05 14:18:49;;;;;;;3.17;2.50;;;;;;;12.49;43.70;98430.25;10468589;28;20230;-72
2024/01/05 14:23:52;;;;;;;5.27;2.80;;;;;;;13.10;43.52;98397.84;10470755;28;20419;-72
2024/01/05 14:28:54;;;;;;;2.97;2.60;;;;;;;13.26;42.99;98469.66;10468411;28;20767;-72
2024/01/05 14:33:57;;;;;;;4.00;2.50;;;;;;;12.05;44.48;98499.31;10472945;28;20870;-72
2024/01/05 14:38:59;;;;;;;5.53;2.90;;;;;;;12.41;44.16;98499.47;10467161;28;20238;-72
2024/01/05 14:44:01;;;;;;;3.83;2.70;;;;;;;11.94;44.36;98497.41;10474341;28;20276;-72
2024/01/05 14:49:05;;;;;;;2.87;2.13;;;;;;;13.41;42.31;98519.44;10468764;28;20237;-71
2024/01/05 14:54:06;;;;;;;3.77;2.20;;;;;;;13.73;42.16;98468.00;10473648;28;20239;-71
2024/01/05 14:59:08;;;;;;;3.93;2.90;;;;;;;12.48;44.89;98460.00;10466606;28;20235;-72
2024/01/05 15:04:10;;;;;;;3.80;3.20;;;;;;;13.57;42.76;98466.88;10474064;28;20234;-71
2024/01/05 15:09:11;;;;;;;4.47;3.37;;;;;;;13.40;42.97;98445.28;10466962;28;20235;-71
2024/01/05 15:14:13;;;;;;;8.20;3.60;;;;;;;12.73;43.96;98478.59;10473846;28;20236;-72
2024/01/05 15:19:16;;;;;;;7.23;3.47;;;;;;;13.44;43.00;98474.09;10470757;28;20246;-72
2024/01/05 15:24:18;;;;;;;4.50;3.47;;;;;;;12.88;43.66;98470.09;10471879;28;20240;-71
2024/01/05 15:29:20;;;;;;;9.57;4.20;;;;;;;11.72;45.76;98430.84;10470303;28;20227;-71
2024/01/05 15:34:22;;;;;;;9.03;4.27;;;;;;;12.87;43.72;98396.81;10468147;28;20232;-71
2024/01/05 15:39:24;;;;;;;4.13;3.33;;;;;;;11.38;44.93;98505.38;10474926;28;20258;-72
2024/01/05 15:44:26;;;;;;;9.20;4.27;;;;;;;10.41;46.37;98543.13;10472802;28;20822;-71
2024/01/05 15:49:27;;;;;;;6.63;3.67;;;;;;;10.35;47.99;98388.06;10471540;28;20325;-71
2024/01/05 15:54:29;;;;;;;4.60;2.97;;;;;;;11.29;46.57;98323.78;10481676;28;20324;-71
2024/01/05 15:59:32;;;;;;;3.70;2.60;;;;;;;11.03;46.73;98329.22;10475773;28;20389;-71
2024/01/05 16:04:35;;;;;;;4.67;3.00;;;;;;;9.95;47.75;98475.47;10474067;28;20239;-74
2024/01/05 16:09:36;;;;;;;2.70;2.50;;;;;;;12.40;44.29;98363.72;10477502;28;20655;-71
2024/01/05 16:14:46;;;;;;;4.83;3.23;;;;;;;10.76;46.27;98494.56;10480438;28;20242;-70
2024/01/05 16:19:48;;;;;;;5.87;2.97;;;;;;;10.86;46.10;98507.47;10475872;28;20285;-73
2024/01/05 16:24:50;;;;;;;5.27;3.33;;;;;;;10.49;47.12;98411.00;10472393;28;20246;-72
2024/01/05 16:29:52;;;;;;;5.60;2.93;;;;;;;10.81;46.68;98392.25;10475539;28;20709;-73
2024/01/05 16:34:53;;;;;;;4.43;3.17;;;;;;;10.38;46.57;98532.00;10474321;28;20314;-72
2024/01/05 16:39:55;;;;;;;4.23;3.17;;;;;;;11.27;45.60;98423.06;10473126;28;20330;-74
2024/01/05 16:44:57;;;;;;;8.77;4.47;;;;;;;11.22;45.23;98471.13;10481152;28;20227;-72
2024/01/05 16:49:59;;;;;;;7.70;5.43;;;;;;;12.52;43.48;98396.78;10475092;28;20227;-72
2024/01/05 16:55:01;;;;;;;9.67;6.67;;;;;;;11.69;44.10;98492.94;10472261;28;20296;-72
2024/01/05 17:00:04;;;;;;;7.43;5.30;;;;;;;11.37;44.66;98519.84;10467489;28;20243;-74
2024/01/05 17:05:06;;;;;;;9.67;6.07;;;;;;;11.24;45.68;98447.66;10472459;28;20260;-74
2024/01/05 17:10:08;;;;;;;7.93;3.93;;;;;;;11.03;45.10;98505.06;10467438;28;20227;-73
2024/01/05 17:15:10;;;;;;;7.20;4.40;;;;;;;10.75;45.30;98514.34;10474222;28;20234;-74
2024/01/05 17:20:11;;;;;;;7.53;5.07;;;;;;;11.53;44.91;98403.22;10471394;28;20618;-73
2024/01/05 17:25:25;;;;;;;6.87;4.50;;;;;;;11.34;45.16;98445.28;10470902;28;20230;-73
2024/01/05 17:30:27;;;;;;;10.87;6.27;;;;;;;11.65;44.00;98510.50;10471546;28;20304;-73
2024/01/05 17:35:29;;;;;;;8.57;5.57;;;;;;;11.89;43.60;98481.16;10473838;28;20657;-73
2024/01/05 17:40:30;;;;;;;11.43;6.43;;;;;;;11.60;43.92;98537.13;10469111;28;20261;-72
2024/01/05 17:45:32;;;;;;;9.43;6.10;;;;;;;11.24;44.21;98558.25;10469468;28;20326;-73
2024/01/05 17:50:34;;;;;;;8.00;4.87;;;;;;;10.50;45.47;98603.34;10467237;28;20267;-72
2024/01/05 17:55:35;;;;;;;7.00;4.20;;;;;;;9.74;47.02;98578.06;10468969;28;20321;-73
2024/01/05 18:00:37;;;;;;;7.00;4.60;;;;;;;10.41;45.89;98528.91;10462607;28;20288;-73
2024/01/05 18:05:39;;;;;;;7.67;4.37;;;;;;;10.17;46.51;98520.59;10462451;28;21428;-74
2024/01/05 18:10:40;;;;;;;6.60;4.67;;;;;;;10.08;46.79;98479.13;10463640;28;20254;-73
2024/01/05 18:15:42;;;;;;;7.03;4.47;;;;;;;9.43;47.50;98535.97;10462023;28;20234;-73
2024/01/05 18:20:44;;;;;;;7.17;4.87;;;;;;;10.07;45.59;98584.38;10462677;28;20380;-73
2024/01/05 18:25:46;;;;;;;7.60;5.07;;;;;;;11.78;43.77;98478.19;10466748;28;20246;-74
2024/01/05 18:30:48;;;;;;;13.43;10.00;;;;;;;11.23;44.34;98548.56;10465836;28;20741;-74
2024/01/05 18:35:50;;;;;;;6.47;5.23;;;;;;;10.54;45.67;98544.91;10464401;28;20239;-74
2024/01/05 18:40:52;;;;;;;6.13;4.70;;;;;;;10.61;46.13;98411.91;10463329;28;20327;-73
2024/01/05 18:45:53;;;;;;;7.73;5.53;;;;;;;10.71;45.90;98398.06;10462653;28;20323;-73
2024/01/05 18:50:55;;;;;;;6.47;5.30;;;;;;;9.99;46.18;98532.00;10472884;28;20261;-73
2024/01/05 18:55:57;;;;;;;6.00;4.07;;;;;;;10.51;45.08;98537.28;10477560;28;20231;-73
2024/01/05 19:00:59;;;;;;;6.00;4.80;;;;;;;10.52;45.43;98520.22;10458952;28;20227;-73
2024/01/05 19:06:01;;;;;;;6.57;4.80;;;;;;;11.45;43.53;98569.59;10469050;28;20239;-73
2024/01/05 19:11:03;;;;;;;6.23;4.73;;;;;;;11.56;43.06;98584.97;10467975;28;20304;-73
2024/01/05 19:16:08;;;;;;;7.13;5.17;;;;;;;11.18;44.23;98582.41;10463382;28;20344;-74
2024/01/05 19:21:10;;;;;;;7.10;5.20;;;;;;;10.83;44.95;98591.69;10469668;28;20317;-74
2024/01/05 19:26:21;;;;;;;11.07;6.00;;;;;;;11.39;44.38;98482.94;10473807;28;21024;-73
2024/01/05 19:31:23;;;;;;;7.63;5.40;;;;;;;11.03;44.69;98497.84;10473343;28;20240;-73
2024/01/05 19:36:24;;;;;;;7.13;5.17;;;;;;;11.64;43.67;98484.75;10474115;28;20546;-73
2024/01/05 19:41:26;;;;;;;6.90;5.10;;;;;;;11.59;44.06;98533.63;10474818;28;20269;-73
2024/01/05 19:46:28;;;;;;;6.33;5.17;;;;;;;11.07;44.59;98525.84;10469609;28;20237;-73
2024/01/05 19:51:30;;;;;;;6.37;4.27;;;;;;;9.65;44.98;98797.50;10474967;28;20243;-73
2024/01/05 19:56:32;;;;;;;5.70;4.33;;;;;;;12.48;42.24;98503.72;10473714;28;20239;-73
2024/01/05 20:01:35;;;;;;;5.33;3.57;;;;;;;12.25;41.92;98638.53;10474388;28;20721;-73
2024/01/05 20:06:38;;;;;;;5.23;4.50;;;;;;;12.08;42.59;98649.03;10471941;28;20329;-74
2024/01/05 20:11:40;;;;;;;8.70;5.80;;;;;;;11.05;43.71;98712.63;10480841;28;20759;-73
2024/01/05 20:16:43;;;;;;;19.57;11.83;;;;;;;11.32;43.58;98591.97;10468457;28;20238;-74
2024/01/05 20:21:45;;;;;;;13.13;8.80;;;;;;;11.25;43.58;98567.94;10474644;28;20310;-73
2024/01/05 20:26:50;;;;;;;9.30;5.90;;;;;;;10.30;44.61;98688.19;10468734;28;20334;-73
2024/01/05 20:31:54;;;;;;;7.63;5.67;;;;;;;10.66;43.86;98689.50;10471480;28;20314;-72
2024/01/05 20:36:55;;;;;;;12.03;7.87;;;;;;;10.94;44.02;98603.56;10466367;28;20236;-70
2024/01/05 20:41:57;;;;;;;12.37;8.43;;;;;;;10.61;44.58;98628.59;10475798;28;20227;-73
2024/01/05 20:46:59;;;;;;;13.37;9.00;;;;;;;10.62;44.65;98594.66;10470166;28;20243;-73
2024/01/05 20:52:00;;;;;;;7.90;5.33;;;;;;;10.31;45.08;98617.63;10472722;28;20228;-73
2024/01/05 20:57:02;;;;;;;5.87;4.23;;;;;;;10.22;45.68;98573.44;10468843;28;20334;-73
2024/01/05 21:02:04;;;;;;;7.07;4.70;;;;;;;10.26;44.96;98622.78;10474202;28;20269;-73
2024/01/05 21:07:06;;;;;;;6.57;4.23;;;;;;;10.60;44.03;98599.41;10467403;28;20318;-71
2024/01/05 21:12:09;;;;;;;5.20;3.73;;;;;;;10.78;44.28;98564.78;10472773;28;20419;-73
2024/01/05 21:17:10;;;;;;;4.40;3.73;;;;;;;9.69;45.77;98650.00;10469325;28;20535;-73
2024/01/05 21:22:12;;;;;;;4.63;4.10;;;;;;;9.45;46.72;98539.28;10471722;28;20328;-73
2024/01/05 21:27:14;;;;;;;7.93;4.80;;;;;;;9.39;46.66;98532.91;10464686;28;20232;-71
2024/01/05 21:32:19;;;;;;;9.93;6.63;;;;;;;9.77;45.76;98563.47;10468554;28;20227;-73
2024/01/05 21:37:21;;;;;;;10.00;6.57;;;;;;;10.02;44.90;98661.69;10464455;28;20270;-73
2024/01/05 21:42:23;;;;;;;6.73;5.27;;;;;;;9.58;45.45;98688.00;10474419;28;20241;-73
2024/01/05 21:47:26;;;;;;;12.73;7.47;;;;;;;9.14;46.93;98602.09;10469902;28;20261;-73
2024/01/05 21:52:28;;;;;;;13.63;8.07;;;;;;;9.35;46.34;98569.06;10469380;28;20252;-73
2024/01/05 21:57:31;;;;;;;7.57;5.90;;;;;;;8.93;46.26;98695.69;10469010;28;20239;-73
2024/01/05 22:02:33;;;;;;;6.53;4.70;;;;;;;9.53;45.37;98627.19;10470789;28;20252;-72
2024/01/05 22:07:36;;;;;;;8.00;4.87;;;;;;;8.91;46.59;98671.03;10452781;22;20265;-37
2024/01/05 22:12:38;;;;;;;5.83;4.33;;;;;;;8.70;46.61;98691.44;10332025;28;20293;-37
2024/01/05 22:17:40;;;;;;;5.97;4.07;;;;;;;9.19;46.26;98604.97;10320559;28;21315;-37
2024/01/05 22:22:42;;;;;;;4.13;3.57;;;;;;;9.64;45.64;98553.63;10322024;28;20234;-36
2024/01/05 22:27:44;;;;;;;4.07;3.63;;;;;;;9.89;44.90;98561.84;10315243;28;20225;-36
2024/01/05 22:32:46;;;;;;;8.53;4.10;;;;;;;9.87;45.23;98561.22;10316858;28;20244;-37
2024/01/05 22:37:48;;;;;;;4.40;3.50;;;;;;;9.87;45.63;98497.09;10312317;28;20337;-37
2024/01/05 22:42:50;;;;;;;5.90;4.00;;;;;;;9.84;45.22;98544.75;10315974;28;20231;-37
2024/01/05 22:47:51;;;;;;;4.17;3.40;;;;;;;10.18;44.70;98538.28;10312239;28;20742;-36
2024/01/05 22:52:53;;;;;;;5.47;3.67;;;;;;;9.88;44.77;98589.56;9403260;28;10000392;-37
2024/01/05 22:57:55;;;;;;;4.70;3.53;;;;;;;10.69;43.76;98515.19;10242671;28;20703;-36
2024/01/05 23:02:57;;;;;;;3.90;3.60;;;;;;;9.52;44.75;98686.97;10250715;28;20267;-37
2024/01/05 23:07:58;;;;;;;4.60;3.73;;;;;;;10.23;43.92;98543.00;10242347;28;20516;-36
2024/01/05 23:13:01;;;;;;;7.40;3.90;;;;;;;9.52;45.55;98542.75;10238247;28;20288;-37
2024/01/05 23:18:03;;;;;;;4.77;3.67;;;;;;;9.43;44.65;98649.97;10232988;28;20256;-36
2024/01/05 23:23:06;;;;;;;4.77;3.83;;;;;;;9.87;43.83;98633.38;10237079;28;20663;-37
2024/01/05 23:28:08;;;;;;;6.20;4.57;;;;;;;9.52;44.70;98582.81;10234257;28;20343;-36
2024/01/05 23:33:10;;;;;;;5.27;3.80;;;;;;;9.26;44.84;98609.50;10238065;28;20284;-36